createdAt,value
2024-01-16T00:02:30.395Z,100.00
2024-01-16T00:06:33.292Z,100.00
2024-01-16T00:10:37.571Z,100.00
2024-01-16T00:14:40.558Z,100.00
2024-01-16T00:18:43.562Z,100.00
2024-01-16T00:22:46.329Z,100.00
2024-01-16T00:26:51.156Z,100.00
2024-01-16T00:30:53.936Z,100.00
2024-01-16T00:34:56.800Z,100.00
2024-01-16T00:38:59.662Z,100.00
2024-01-16T00:43:03.848Z,100.00
2024-01-16T00:47:06.963Z,100.00
2024-01-16T00:51:09.889Z,100.00
2024-01-16T00:55:12.956Z,100.00
2024-01-16T00:59:17.248Z,100.00
2024-01-16T01:03:26.033Z,100.00
2024-01-16T01:07:28.829Z,100.00
2024-01-16T01:11:31.671Z,100.00
2024-01-16T01:15:35.882Z,100.00
2024-01-16T01:19:38.655Z,100.00
2024-01-16T01:23:41.566Z,100.00
2024-01-16T01:27:44.492Z,100.00
2024-01-16T01:31:51.519Z,100.00
2024-01-16T01:35:54.547Z,100.00
2024-01-16T01:39:57.467Z,100.00
2024-01-16T01:44:00.563Z,100.00
2024-01-16T01:48:08.168Z,100.00
2024-01-16T01:52:11.267Z,100.00
2024-01-16T01:56:17.063Z,100.00
2024-01-16T02:00:20.085Z,100.00
2024-01-16T02:04:24.545Z,100.00
2024-01-16T02:08:28.474Z,100.00
2024-01-16T02:12:31.311Z,100.00
2024-01-16T02:16:38.278Z,100.00
2024-01-16T02:20:42.510Z,100.00
2024-01-16T02:24:46.743Z,100.00
2024-01-16T02:28:49.536Z,100.00
2024-01-16T02:32:52.533Z,100.00
2024-01-16T02:36:55.480Z,100.00
2024-01-16T02:40:59.644Z,100.00
2024-01-16T02:45:06.353Z,100.00
2024-01-16T02:49:09.799Z,100.00
2024-01-16T02:53:12.708Z,100.00
2024-01-16T02:57:16.887Z,100.00
2024-01-16T03:01:20.815Z,100.00
2024-01-16T03:05:23.644Z,100.00
2024-01-16T03:09:29.638Z,100.00
2024-01-16T03:13:33.886Z,100.00
2024-01-16T03:17:36.982Z,100.00
2024-01-16T03:21:39.946Z,100.00
2024-01-16T03:25:42.732Z,100.00
2024-01-16T03:29:48.049Z,100.00
2024-01-16T03:33:50.974Z,100.00
2024-01-16T03:37:53.791Z,100.00
2024-01-16T03:41:56.586Z,100.00
2024-01-16T03:46:00.931Z,100.00
2024-01-16T03:50:11.492Z,100.00
2024-01-16T03:54:14.570Z,100.00
2024-01-16T03:58:17.402Z,100.00
2024-01-16T04:02:21.620Z,100.00
2024-01-16T04:06:24.636Z,100.00
2024-01-16T04:10:32.540Z,100.00
2024-01-16T04:14:35.357Z,100.00
2024-01-16T04:18:42.104Z,100.00
2024-01-16T04:22:45.030Z,100.00
2024-01-16T04:26:47.883Z,100.00
2024-01-16T04:30:50.697Z,100.00
2024-01-16T04:34:54.901Z,100.00
2024-01-16T04:39:00.009Z,100.00
2024-01-16T04:43:08.787Z,100.00
2024-01-16T04:47:11.648Z,100.00
2024-01-16T04:51:15.905Z,100.00
2024-01-16T04:55:18.818Z,100.00
2024-01-16T04:59:29.600Z,100.00
2024-01-16T05:03:32.371Z,100.00
2024-01-16T05:07:37.136Z,100.00
2024-01-16T05:11:39.741Z,100.00
2024-01-16T05:15:43.262Z,100.00
2024-01-16T05:19:53.398Z,100.00
2024-01-16T05:23:57.627Z,100.00
2024-01-16T05:28:00.383Z,100.00
2024-01-16T05:32:03.203Z,100.00
2024-01-16T05:36:06.313Z,100.00
2024-01-16T05:40:17.395Z,100.00
2024-01-16T05:44:20.105Z,100.00
2024-01-16T05:48:22.914Z,100.00
2024-01-16T05:52:26.153Z,100.00
2024-01-16T05:56:35.445Z,100.00
2024-01-16T06:00:39.106Z,100.00
2024-01-16T06:04:49.942Z,100.00
2024-01-16T06:08:52.837Z,100.00
2024-01-16T06:12:57.003Z,100.00
2024-01-16T06:16:59.749Z,100.00
2024-01-16T06:21:03.660Z,100.00
2024-01-16T06:25:07.452Z,100.00
2024-01-16T06:29:21.409Z,100.00
2024-01-16T06:33:31.296Z,100.00
2024-01-16T06:37:34.197Z,100.00
2024-01-16T06:41:36.958Z,100.00
2024-01-16T06:45:41.184Z,100.00
2024-01-16T06:49:43.982Z,100.00
2024-01-16T06:53:47.208Z,100.00
2024-01-16T06:57:50.429Z,100.00
2024-01-16T07:01:55.860Z,100.00
2024-01-16T07:05:59.060Z,100.00
2024-01-16T07:10:02.183Z,100.00
2024-01-16T07:14:06.019Z,100.00
2024-01-16T07:18:11.024Z,100.00
2024-01-16T07:22:17.073Z,100.00
2024-01-16T07:26:19.835Z,100.00
2024-01-16T07:30:22.808Z,100.00
2024-01-16T07:34:35.064Z,100.00
2024-01-16T07:38:38.972Z,100.00
2024-01-16T07:42:42.192Z,100.00
2024-01-16T07:46:47.067Z,100.00
2024-01-16T07:50:51.059Z,100.00
2024-01-16T07:54:53.844Z,100.00
2024-01-16T07:58:56.754Z,100.00
2024-01-16T08:02:59.767Z,100.00
2024-01-16T08:07:04.214Z,100.00
2024-01-16T08:11:09.227Z,100.00
2024-01-16T08:15:12.229Z,100.00
2024-01-16T08:19:16.258Z,100.00
2024-01-16T08:23:22.574Z,100.00
2024-01-16T08:27:26.523Z,100.00
2024-01-16T08:31:36.569Z,100.00
2024-01-16T08:35:39.544Z,100.00
2024-01-16T08:39:51.881Z,100.00
2024-01-16T08:43:55.589Z,100.00
2024-01-16T08:48:01.120Z,100.00
2024-01-16T08:52:05.666Z,100.00
2024-01-16T08:56:13.425Z,100.00
2024-01-16T09:00:16.928Z,100.00
2024-01-16T09:04:19.929Z,100.00
2024-01-16T09:08:23.802Z,100.00
2024-01-16T09:12:28.664Z,100.00
2024-01-16T09:16:34.832Z,100.00
2024-01-16T09:20:49.752Z,100.00
2024-01-16T09:24:53.689Z,100.00
2024-01-16T09:29:03.819Z,100.00
2024-01-16T09:33:08.228Z,100.00
2024-01-16T09:37:11.145Z,100.00
2024-01-16T09:41:23.687Z,100.00
2024-01-16T09:45:31.711Z,100.00
2024-01-16T09:49:34.675Z,100.00
2024-01-16T09:53:39.927Z,100.00
2024-01-16T09:57:43.848Z,100.00
2024-01-16T10:01:48.370Z,100.00
2024-01-16T10:05:51.521Z,100.00
2024-01-16T10:09:54.676Z,100.00
2024-01-16T10:14:00.687Z,100.00
2024-01-16T10:18:06.478Z,100.00
2024-01-16T10:22:09.459Z,100.00
2024-01-16T10:26:13.818Z,100.00
2024-01-16T10:30:16.974Z,100.00
2024-01-16T10:34:25.631Z,100.00
2024-01-16T10:38:28.693Z,100.00
2024-01-16T10:42:31.738Z,100.00
2024-01-16T10:46:34.694Z,100.00
2024-01-16T10:50:41.459Z,100.00
2024-01-16T10:54:45.982Z,100.00
2024-01-16T10:58:56.281Z,100.00
2024-01-16T11:03:02.595Z,100.00
2024-01-16T11:07:07.743Z,100.00
2024-01-16T11:11:19.274Z,100.00
2024-01-16T11:15:24.903Z,100.00
2024-01-16T11:19:38.923Z,100.00
2024-01-16T11:23:53.749Z,100.00
2024-01-16T11:28:10.942Z,100.00
2024-01-16T11:32:39.545Z,100.00
2024-01-16T11:37:02.053Z,100.00
2024-01-16T11:41:13.877Z,100.00
2024-01-16T11:45:49.914Z,99.95
2024-01-16T11:49:53.880Z,100.00
2024-01-16T11:53:58.193Z,98.21
2024-01-16T11:58:23.148Z,95.93
2024-01-16T12:02:32.020Z,95.89
2024-01-16T12:06:41.694Z,98.42
2024-01-16T12:10:48.846Z,94.72
2024-01-16T12:14:56.548Z,98.16
2024-01-16T12:19:07.209Z,98.10
2024-01-16T12:23:23.271Z,99.96
2024-01-16T12:27:32.474Z,97.23
2024-01-16T12:31:43.781Z,100.00
2024-01-16T12:35:52.753Z,100.00
2024-01-16T12:39:55.693Z,97.31
2024-01-16T12:44:04.926Z,96.29
2024-01-16T12:48:25.466Z,94.77
2024-01-16T12:52:31.198Z,93.86
2024-01-16T12:56:38.395Z,82.35
2024-01-16T13:00:42.192Z,86.46
2024-01-16T13:05:01.094Z,87.59
2024-01-16T13:09:16.359Z,84.66
2024-01-16T13:13:25.297Z,85.54
2024-01-16T13:17:28.270Z,84.89
2024-01-16T13:21:32.993Z,87.82
2024-01-16T13:25:36.019Z,84.05
2024-01-16T13:29:41.810Z,85.54
2024-01-16T13:33:52.391Z,81.55
2024-01-16T13:37:56.927Z,83.57
2024-01-16T13:41:59.738Z,84.87
2024-01-16T13:46:18.705Z,89.38
2024-01-16T13:50:34.628Z,87.81
2024-01-16T13:54:41.753Z,87.28
2024-01-16T13:58:46.734Z,85.37
2024-01-16T14:02:52.266Z,88.87
2024-01-16T14:07:10.314Z,90.28
2024-01-16T14:11:33.390Z,86.51
2024-01-16T14:15:41.795Z,88.39
2024-01-16T14:19:46.847Z,89.13
2024-01-16T14:23:50.270Z,89.22
2024-01-16T14:28:00.784Z,88.87
2024-01-16T14:32:09.102Z,90.14
2024-01-16T14:36:19.656Z,89.31
2024-01-16T14:40:26.664Z,90.20
2024-01-16T14:44:44.460Z,90.97
2024-01-16T14:48:48.058Z,91.08
2024-01-16T14:52:52.774Z,93.37
2024-01-16T14:56:57.171Z,93.89
2024-01-16T15:01:02.829Z,92.23
2024-01-16T15:05:19.745Z,91.77
2024-01-16T15:09:22.863Z,94.80
2024-01-16T15:13:39.540Z,91.62
2024-01-16T15:17:46.047Z,91.96
2024-01-16T15:21:49.231Z,93.16
2024-01-16T15:25:52.156Z,97.55
2024-01-16T15:29:59.490Z,99.16
2024-01-16T15:34:12.152Z,100.00
2024-01-16T15:38:18.672Z,100.00
2024-01-16T15:42:27.132Z,100.00
2024-01-16T15:46:58.253Z,100.00
2024-01-16T15:51:08.247Z,100.00
2024-01-16T15:55:15.478Z,100.00
2024-01-16T15:59:24.430Z,100.00
2024-01-16T16:03:27.959Z,100.00
2024-01-16T16:07:33.588Z,100.00
2024-01-16T16:11:39.758Z,100.00
2024-01-16T16:16:00.147Z,100.00
2024-01-16T16:20:11.300Z,100.00
2024-01-16T16:24:40.447Z,100.00
2024-01-16T16:28:51.305Z,100.00
2024-01-16T16:33:02.215Z,100.00
2024-01-16T16:37:11.051Z,100.00
2024-01-16T16:41:21.672Z,100.00
2024-01-16T16:45:26.657Z,100.00
2024-01-16T16:49:36.716Z,100.00
2024-01-16T16:53:47.068Z,100.00
2024-01-16T16:57:57.929Z,100.00
2024-01-16T17:02:09.058Z,100.00
2024-01-16T17:06:12.114Z,100.00
2024-01-16T17:10:14.989Z,100.00
2024-01-16T17:14:19.739Z,100.00
2024-01-16T17:18:39.489Z,100.00
2024-01-16T17:22:53.305Z,100.00
2024-01-16T17:26:56.353Z,100.00
2024-01-16T17:31:08.343Z,100.00
2024-01-16T17:35:19.594Z,100.00
2024-01-16T17:39:26.506Z,100.00
2024-01-16T17:43:35.826Z,100.00
2024-01-16T17:47:48.419Z,100.00
2024-01-16T17:52:00.179Z,100.00
2024-01-16T17:56:03.630Z,100.00
2024-01-16T18:00:10.366Z,100.00
2024-01-16T18:04:14.627Z,100.00
2024-01-16T18:08:18.385Z,100.00
2024-01-16T18:12:22.542Z,100.00
2024-01-16T18:16:27.686Z,100.00
2024-01-16T18:20:32.784Z,100.00
2024-01-16T18:24:38.512Z,100.00
2024-01-16T18:28:41.699Z,100.00
2024-01-16T18:32:45.319Z,100.00
2024-01-16T18:36:50.709Z,100.00
2024-01-16T18:40:53.755Z,100.00
2024-01-16T18:44:56.591Z,100.00
2024-01-16T18:49:00.150Z,100.00
2024-01-16T18:53:04.900Z,100.00
2024-01-16T18:57:08.492Z,100.00
2024-01-16T19:01:12.534Z,100.00
2024-01-16T19:05:18.023Z,100.00
2024-01-16T19:09:36.963Z,100.00
2024-01-16T19:13:40.548Z,100.00
2024-01-16T19:17:43.509Z,100.00
2024-01-16T19:21:47.743Z,100.00
2024-01-16T19:25:52.674Z,100.00
2024-01-16T19:29:55.482Z,100.00
2024-01-16T19:33:58.722Z,100.00
2024-01-16T19:38:01.857Z,100.00
2024-01-16T19:42:06.526Z,100.00
2024-01-16T19:46:09.749Z,100.00
2024-01-16T19:50:21.622Z,100.00
2024-01-16T19:54:26.815Z,100.00
2024-01-16T19:58:31.676Z,100.00
2024-01-16T20:02:41.375Z,100.00
2024-01-16T20:06:45.951Z,100.00
2024-01-16T20:10:48.775Z,100.00
2024-01-16T20:14:53.973Z,100.00
2024-01-16T20:18:57.179Z,100.00
2024-01-16T20:23:00.532Z,100.00
2024-01-16T20:27:04.021Z,100.00
2024-01-16T20:31:09.243Z,100.00
2024-01-16T20:35:13.286Z,100.00
2024-01-16T20:39:19.205Z,100.00
2024-01-16T20:43:22.001Z,100.00
2024-01-16T20:47:26.327Z,100.00
2024-01-16T20:51:29.958Z,100.00
2024-01-16T20:55:32.950Z,100.00
2024-01-16T20:59:37.115Z,100.00
2024-01-16T21:03:41.257Z,100.00
2024-01-16T21:07:44.638Z,100.00
2024-01-16T21:11:47.980Z,100.00
2024-01-16T21:15:50.837Z,100.00
2024-01-16T21:19:55.029Z,100.00
2024-01-16T21:23:57.793Z,100.00
2024-01-16T21:28:01.023Z,100.00
2024-01-16T21:32:05.808Z,100.00
2024-01-16T21:36:11.891Z,100.00
2024-01-16T21:40:14.818Z,100.00
2024-01-16T21:44:17.578Z,100.00
2024-01-16T21:48:28.088Z,100.00
2024-01-16T21:52:33.928Z,100.00
2024-01-16T21:56:37.179Z,100.00
2024-01-16T22:00:39.987Z,100.00
2024-01-16T22:04:43.193Z,100.00
2024-01-16T22:08:57.496Z,100.00
2024-01-16T22:13:00.744Z,100.00
2024-01-16T22:17:03.484Z,100.00
2024-01-16T22:21:08.053Z,100.00
2024-01-16T22:25:12.393Z,100.00
2024-01-16T22:29:15.393Z,100.00
2024-01-16T22:33:18.241Z,100.00
2024-01-16T22:37:21.072Z,100.00
2024-01-16T22:41:25.280Z,100.00
2024-01-16T22:45:28.186Z,100.00
2024-01-16T22:49:30.988Z,100.00
2024-01-16T22:53:33.864Z,100.00
2024-01-16T22:57:38.018Z,100.00
2024-01-16T23:01:48.357Z,100.00
2024-01-16T23:05:51.108Z,100.00
2024-01-16T23:09:56.580Z,100.00
2024-01-16T23:14:01.656Z,100.00
2024-01-16T23:18:07.036Z,100.00
2024-01-16T23:22:09.921Z,100.00
2024-01-16T23:26:12.769Z,100.00
2024-01-16T23:30:17.183Z,100.00
2024-01-16T23:34:19.981Z,100.00
2024-01-16T23:38:22.816Z,100.00
2024-01-16T23:42:27.057Z,100.00
2024-01-16T23:46:31.131Z,100.00
2024-01-16T23:50:35.069Z,100.00
2024-01-16T23:54:38.341Z,100.00
2024-01-16T23:58:41.048Z,100.00
